aviador You're here:

LEVC Decoded Metar

VALENCIA in SPAIN
Report Time2016-07-25 17:30:00
UTC Time2016-07-25 17:47:22
Flight Rules vfr VFR
Wind110° at 09 kt
W.Decomp.*RWY 12: 8.9 kt HW 1.4 kt LCW
W.Rank110° ranks 16
Current wind is above 110° avg. (7.3)
Visibility9999 m
Phenomena:N/A
Clouds:Few 055 Hf
Expected CloudBase > 6,800 ft AGL from Temp-Dew spread
CeilingNone
Temp31°C (ISA +16)
Dew Point14°C (35% RH)
Heat Index30.3°C
AAT28.9°C
QNH1016 hPa
Density Alt2,195 ft
Elevation203 ft
Report Wrong Elevation
Raw Report
METAR LEVC 251730Z 11009KT 080V140 9999 FEW055 31/14 Q1016 NOSIG=

Extra information for LEVC:More info

Metar Taf Metar & Taf Last 4 Metars F.Rules Stats Wind Profile Meteogram Temp Stats Airport Information Weather charts Add Link Nearby VenuesMetar ALERT Operation Metar Decoded Social comments

Webcam Valencia